createdAt,value
2023-01-20T00:01:25.066Z,39.57
2023-01-20T00:03:54.187Z,40.13
2023-01-20T00:06:23.108Z,38.40
2023-01-20T00:08:54.998Z,33.43
2023-01-20T00:11:23.457Z,41.97
2023-01-20T00:13:55.627Z,36.87
2023-01-20T00:16:25.692Z,39.90
2023-01-20T00:18:54.577Z,40.47
2023-01-20T00:21:23.070Z,38.80
2023-01-20T00:23:51.232Z,40.13
2023-01-20T00:26:21.120Z,41.70
2023-01-20T00:28:49.868Z,41.63
2023-01-20T00:31:20.062Z,39.23
2023-01-20T00:33:51.230Z,34.70
2023-01-20T00:36:20.825Z,55.90
2023-01-20T00:38:48.957Z,35.57
2023-01-20T00:41:18.031Z,36.60
2023-01-20T00:43:46.241Z,31.50
2023-01-20T00:46:14.219Z,31.13
2023-01-20T00:48:43.179Z,26.90
2023-01-20T00:51:13.174Z,34.87
2023-01-20T00:53:41.705Z,32.33
2023-01-20T00:56:10.505Z,33.90
2023-01-20T00:58:38.333Z,34.57
2023-01-20T01:01:07.426Z,32.40
2023-01-20T01:03:35.455Z,29.42
2023-01-20T01:06:09.235Z,36.20
2023-01-20T01:08:38.758Z,37.83
2023-01-20T01:11:07.840Z,35.53
2023-01-20T01:13:37.723Z,32.25
2023-01-20T01:16:06.584Z,37.00
2023-01-20T01:18:34.481Z,32.57
2023-01-20T01:21:07.951Z,29.02
2023-01-20T01:23:35.899Z,34.50
2023-01-20T01:26:05.892Z,40.33
2023-01-20T01:28:33.917Z,32.33
2023-01-20T01:31:03.512Z,35.55
2023-01-20T01:33:33.121Z,37.90
2023-01-20T01:36:02.944Z,35.00
2023-01-20T01:38:31.095Z,37.93
2023-01-20T01:40:59.715Z,44.70
2023-01-20T01:43:31.899Z,39.17
2023-01-20T01:46:00.671Z,31.00
2023-01-20T01:48:33.912Z,38.50
2023-01-20T01:51:07.433Z,32.80
2023-01-20T01:53:41.429Z,33.17
2023-01-20T01:56:11.905Z,40.97
2023-01-20T01:58:47.565Z,38.30
2023-01-20T02:01:16.210Z,41.80
2023-01-20T02:03:50.874Z,36.80
2023-01-20T02:06:21.504Z,45.53
2023-01-20T02:08:49.926Z,38.10
2023-01-20T02:11:18.176Z,40.63
2023-01-20T02:13:47.969Z,46.13
2023-01-20T02:16:21.526Z,41.77
2023-01-20T02:19:02.400Z,38.17
2023-01-20T02:22:05.457Z,38.40
2023-01-20T02:25:10.664Z,40.47
2023-01-20T02:28:08.761Z,42.67
2023-01-20T02:30:55.654Z,40.33
2023-01-20T02:33:31.383Z,45.17
2023-01-20T02:36:03.905Z,47.93
2023-01-20T02:38:38.494Z,37.17
2023-01-20T02:41:11.528Z,39.10
2023-01-20T02:43:48.043Z,39.70
2023-01-20T02:46:24.407Z,39.63
2023-01-20T02:48:58.837Z,33.67
2023-01-20T02:51:31.422Z,39.97
2023-01-20T02:54:04.197Z,43.43
2023-01-20T02:56:35.910Z,36.23
2023-01-20T02:59:09.981Z,32.67
2023-01-20T03:01:43.357Z,37.30
2023-01-20T03:04:15.045Z,39.43
2023-01-20T03:06:48.773Z,38.43
2023-01-20T03:09:20.037Z,39.50
2023-01-20T03:11:54.818Z,36.17
2023-01-20T03:14:23.321Z,32.00
2023-01-20T03:16:51.600Z,40.03
2023-01-20T03:19:22.080Z,39.50
2023-01-20T03:21:50.149Z,42.53
2023-01-20T03:24:18.070Z,39.53
2023-01-20T03:26:46.684Z,38.37
2023-01-20T03:29:16.121Z,36.57
2023-01-20T03:31:47.847Z,43.00
2023-01-20T03:34:23.108Z,30.70
2023-01-20T03:36:52.936Z,36.57
2023-01-20T03:39:22.205Z,40.13
2023-01-20T03:42:03.012Z,43.90
2023-01-20T03:44:39.284Z,41.23
2023-01-20T03:47:17.589Z,44.40
2023-01-20T03:49:55.608Z,41.03
2023-01-20T03:52:47.640Z,47.63
2023-01-20T03:55:22.493Z,37.30
2023-01-20T03:57:56.044Z,48.90
2023-01-20T04:00:26.564Z,52.43
2023-01-20T04:03:01.202Z,44.33
2023-01-20T04:05:31.239Z,38.43
2023-01-20T04:08:04.090Z,43.17
2023-01-20T04:10:34.476Z,48.13
2023-01-20T04:13:02.419Z,44.77
2023-01-20T04:15:35.178Z,40.83
2023-01-20T04:18:13.950Z,41.87
2023-01-20T04:20:44.734Z,40.17
2023-01-20T04:23:19.613Z,42.73
2023-01-20T04:25:47.888Z,41.00
2023-01-20T04:28:15.786Z,40.10
2023-01-20T04:30:44.047Z,45.17
2023-01-20T04:33:14.181Z,40.70
2023-01-20T04:35:43.900Z,43.33
2023-01-20T04:38:12.056Z,47.23
2023-01-20T04:40:40.069Z,40.10
2023-01-20T04:43:10.109Z,43.03
2023-01-20T04:45:38.496Z,42.57
2023-01-20T04:48:10.637Z,42.50
2023-01-20T04:50:40.863Z,52.87
2023-01-20T04:53:13.743Z,42.80
2023-01-20T04:55:41.976Z,40.47
2023-01-20T04:58:10.750Z,41.73
2023-01-20T05:00:39.553Z,41.83
2023-01-20T05:03:07.988Z,45.97
2023-01-20T05:05:36.394Z,42.93
2023-01-20T05:08:05.218Z,50.73
2023-01-20T05:10:35.107Z,51.77
2023-01-20T05:13:03.387Z,39.97
2023-01-20T05:15:31.737Z,41.80
2023-01-20T05:17:59.814Z,42.40
2023-01-20T05:20:27.759Z,41.63
2023-01-20T05:22:55.704Z,42.17
2023-01-20T05:25:23.591Z,43.53
2023-01-20T05:27:53.013Z,40.37
2023-01-20T05:30:21.374Z,49.47
2023-01-20T05:32:50.997Z,47.67
2023-01-20T05:35:19.181Z,41.60
2023-01-20T05:37:47.719Z,41.00
2023-01-20T05:40:15.645Z,42.70
2023-01-20T05:42:43.480Z,47.03
2023-01-20T05:45:14.043Z,44.10
2023-01-20T05:47:42.704Z,40.50
2023-01-20T05:50:12.097Z,47.53
2023-01-20T05:52:40.575Z,42.17
2023-01-20T05:55:08.946Z,46.43
2023-01-20T05:57:36.849Z,50.50
2023-01-20T06:00:08.636Z,51.50
2023-01-20T06:02:38.290Z,52.80
2023-01-20T06:05:07.710Z,47.10
2023-01-20T06:07:36.760Z,46.70
2023-01-20T06:10:05.015Z,42.30
2023-01-20T06:12:33.177Z,45.30
2023-01-20T06:15:01.465Z,48.27
2023-01-20T06:17:29.730Z,44.80
2023-01-20T06:20:00.685Z,43.33
2023-01-20T06:22:29.117Z,43.17
2023-01-20T06:24:57.216Z,45.87
2023-01-20T06:27:25.703Z,46.80
2023-01-20T06:29:53.639Z,48.33
2023-01-20T06:32:22.114Z,44.93
2023-01-20T06:34:50.293Z,42.47
2023-01-20T06:37:19.914Z,40.27
2023-01-20T06:39:48.145Z,42.10
2023-01-20T06:42:16.368Z,45.40
2023-01-20T06:44:44.392Z,44.50
2023-01-20T06:47:13.069Z,46.83
2023-01-20T06:49:41.523Z,43.70
2023-01-20T06:52:09.787Z,41.63
2023-01-20T06:54:39.085Z,37.33
2023-01-20T06:57:07.814Z,42.80
2023-01-20T06:59:35.732Z,46.77
2023-01-20T07:02:03.816Z,41.17
2023-01-20T07:04:32.173Z,44.50
2023-01-20T07:07:00.491Z,42.50
2023-01-20T07:09:28.435Z,49.70
2023-01-20T07:11:58.223Z,51.70
2023-01-20T07:14:26.246Z,42.50
2023-01-20T07:16:54.792Z,43.10
2023-01-20T07:19:25.107Z,45.27
2023-01-20T07:21:54.425Z,40.70
2023-01-20T07:24:24.524Z,39.53
2023-01-20T07:26:56.073Z,44.75
2023-01-20T07:29:52.910Z,41.97
2023-01-20T07:32:25.716Z,45.13
2023-01-20T07:34:55.526Z,47.60
2023-01-20T07:37:27.160Z,43.78
2023-01-20T07:39:57.253Z,40.53
2023-01-20T07:42:30.822Z,50.25
2023-01-20T07:45:03.396Z,57.05
2023-01-20T07:47:33.560Z,45.20
2023-01-20T07:50:02.819Z,42.63
2023-01-20T07:52:33.473Z,45.57
2023-01-20T07:55:02.922Z,47.28
2023-01-20T07:57:35.462Z,56.08
2023-01-20T08:00:10.539Z,40.70
2023-01-20T08:02:43.495Z,42.60
2023-01-20T08:05:16.450Z,41.35
2023-01-20T08:07:52.921Z,44.85
2023-01-20T08:10:29.239Z,40.38
2023-01-20T08:13:14.676Z,48.37
2023-01-20T08:15:49.492Z,46.37
2023-01-20T08:18:39.304Z,37.22
2023-01-20T08:21:21.717Z,36.78
2023-01-20T08:24:09.045Z,37.97
2023-01-20T08:26:48.544Z,35.88
2023-01-20T08:29:25.568Z,46.38
2023-01-20T08:32:08.286Z,42.40
2023-01-20T08:34:40.530Z,43.47
2023-01-20T08:37:10.874Z,38.17
2023-01-20T08:39:42.376Z,38.60
2023-01-20T08:42:12.335Z,42.40
2023-01-20T08:44:43.894Z,35.65
2023-01-20T08:47:15.641Z,38.30
2023-01-20T08:49:46.788Z,37.83
2023-01-20T08:52:17.844Z,41.00
2023-01-20T08:54:48.970Z,38.92
2023-01-20T08:57:20.833Z,39.72
2023-01-20T08:59:51.410Z,37.92
2023-01-20T09:02:27.266Z,36.00
2023-01-20T09:04:58.563Z,38.92
2023-01-20T09:07:27.718Z,63.03
2023-01-20T09:09:56.242Z,45.17
2023-01-20T09:12:25.236Z,52.38
2023-01-20T09:14:53.561Z,47.92
2023-01-20T09:17:23.352Z,43.40
2023-01-20T09:19:52.455Z,41.00
2023-01-20T09:22:20.916Z,43.33
2023-01-20T09:24:49.261Z,44.65
2023-01-20T09:27:18.326Z,47.55
2023-01-20T09:29:46.488Z,46.85
2023-01-20T09:32:15.931Z,49.13
2023-01-20T09:34:46.245Z,49.15
2023-01-20T09:37:31.971Z,46.88
2023-01-20T09:40:17.776Z,46.30
2023-01-20T09:43:24.538Z,51.03
2023-01-20T09:45:57.828Z,53.85
2023-01-20T09:48:54.453Z,55.38
2023-01-20T09:51:49.543Z,54.25
2023-01-20T09:54:25.128Z,50.55
2023-01-20T09:56:56.057Z,46.38
2023-01-20T09:59:28.002Z,49.00
2023-01-20T10:02:00.974Z,50.30
2023-01-20T10:04:38.104Z,51.42
2023-01-20T10:07:13.218Z,49.58
2023-01-20T10:09:47.328Z,45.60
2023-01-20T10:12:21.539Z,40.03
2023-01-20T10:14:55.530Z,41.20
2023-01-20T10:17:29.066Z,43.13
2023-01-20T10:20:04.076Z,39.97
2023-01-20T10:22:38.687Z,48.78
2023-01-20T10:25:13.444Z,43.00
2023-01-20T10:27:51.909Z,44.90
2023-01-20T10:30:24.963Z,41.22
2023-01-20T10:33:00.355Z,45.42
2023-01-20T10:35:32.241Z,47.22
2023-01-20T10:38:02.489Z,41.50
2023-01-20T10:40:37.660Z,47.08
2023-01-20T10:43:13.049Z,44.45
2023-01-20T10:45:59.312Z,54.55
2023-01-20T10:48:49.317Z,38.83
2023-01-20T10:51:24.577Z,39.72
2023-01-20T10:54:03.629Z,38.17
2023-01-20T10:56:41.059Z,43.17
2023-01-20T10:59:16.198Z,43.90
2023-01-20T11:01:56.222Z,39.58
2023-01-20T11:04:29.063Z,46.92
2023-01-20T11:06:59.835Z,45.42
2023-01-20T11:09:35.701Z,56.70
2023-01-20T11:12:07.747Z,49.45
2023-01-20T11:14:36.544Z,51.95
2023-01-20T11:17:08.026Z,41.95
2023-01-20T11:19:51.756Z,40.63
2023-01-20T11:22:32.312Z,31.85
2023-01-20T11:25:04.134Z,36.30
2023-01-20T11:27:37.707Z,35.38
2023-01-20T11:30:09.653Z,46.65
2023-01-20T11:32:40.376Z,44.45
2023-01-20T11:35:21.949Z,45.03
2023-01-20T11:37:50.010Z,42.13
2023-01-20T11:40:23.378Z,48.38
2023-01-20T11:42:53.091Z,38.20
2023-01-20T11:45:27.539Z,36.67
2023-01-20T11:48:05.036Z,37.88
2023-01-20T11:50:41.967Z,36.95
2023-01-20T11:53:17.966Z,38.65
2023-01-20T11:55:52.039Z,36.38
2023-01-20T11:58:21.993Z,32.95
2023-01-20T12:00:53.448Z,32.45
2023-01-20T12:03:45.695Z,32.92
2023-01-20T12:06:19.032Z,35.42
2023-01-20T12:08:51.924Z,36.47
2023-01-20T12:11:26.532Z,34.85
2023-01-20T12:14:23.397Z,38.60
2023-01-20T12:16:58.736Z,37.53
2023-01-20T12:19:43.079Z,39.67
2023-01-20T12:22:17.678Z,29.55
2023-01-20T12:25:10.624Z,32.45
2023-01-20T12:27:48.268Z,38.70
2023-01-20T12:30:45.477Z,41.15
2023-01-20T12:33:26.045Z,35.92
2023-01-20T12:36:26.129Z,33.40
2023-01-20T12:39:05.612Z,31.95
2023-01-20T12:41:50.685Z,38.22
2023-01-20T12:44:25.121Z,33.28
2023-01-20T12:47:04.968Z,34.85
2023-01-20T12:50:01.865Z,32.10
2023-01-20T12:52:45.168Z,25.67
2023-01-20T12:55:25.707Z,33.45
2023-01-20T12:58:08.548Z,30.80
2023-01-20T13:01:17.265Z,23.58
2023-01-20T13:04:12.850Z,33.30
2023-01-20T13:06:58.369Z,31.17
2023-01-20T13:09:40.979Z,37.22
2023-01-20T13:12:26.703Z,32.60
2023-01-20T13:14:59.912Z,22.27
2023-01-20T13:17:40.101Z,29.17
2023-01-20T13:20:17.753Z,33.17
2023-01-20T13:22:46.089Z,32.42
2023-01-20T13:25:17.419Z,38.53
2023-01-20T13:27:47.765Z,26.50
2023-01-20T13:30:43.020Z,28.40
2023-01-20T13:33:33.328Z,28.35
2023-01-20T13:36:02.355Z,32.47
2023-01-20T13:38:35.292Z,24.17
2023-01-20T13:41:06.121Z,39.03
2023-01-20T13:43:49.371Z,28.00
2023-01-20T13:46:49.258Z,30.15
2023-01-20T13:49:31.309Z,29.42
2023-01-20T13:51:59.395Z,24.55
2023-01-20T13:54:49.776Z,38.08
2023-01-20T13:57:38.022Z,26.35
2023-01-20T14:00:17.941Z,29.85
2023-01-20T14:02:48.056Z,30.50
2023-01-20T14:08:31.558Z,31.65
2023-01-20T14:11:12.067Z,30.23
2023-01-20T14:13:40.377Z,32.20
2023-01-20T14:16:20.413Z,30.20
2023-01-20T14:18:49.838Z,32.90
2023-01-20T14:21:39.923Z,30.80
2023-01-20T14:24:23.080Z,28.33
2023-01-20T14:26:51.629Z,27.75
2023-01-20T14:29:21.874Z,29.67
2023-01-20T14:31:50.187Z,28.98
2023-01-20T14:34:26.905Z,27.27
2023-01-20T14:36:58.888Z,27.73
2023-01-20T14:39:29.204Z,32.13
2023-01-20T14:41:58.789Z,28.27
2023-01-20T14:44:28.923Z,28.60
2023-01-20T14:46:59.537Z,28.85
2023-01-20T14:49:33.517Z,21.60
2023-01-20T14:52:04.206Z,31.48
2023-01-20T14:54:42.699Z,31.73
2023-01-20T14:57:24.111Z,32.17
2023-01-20T15:00:14.527Z,27.58
2023-01-20T15:03:01.053Z,31.23
2023-01-20T15:05:38.074Z,18.17
2023-01-20T15:08:19.050Z,39.67
2023-01-20T15:10:47.037Z,49.85
2023-01-20T15:13:26.781Z,56.22
2023-01-20T15:16:08.211Z,87.07
2023-01-20T15:18:36.816Z,100.28
2023-01-20T15:21:27.006Z,103.50
2023-01-20T15:23:57.189Z,65.57
2023-01-20T15:26:28.668Z,48.83
2023-01-20T15:28:58.179Z,42.17
2023-01-20T15:31:26.509Z,35.90
2023-01-20T15:33:54.621Z,33.65
2023-01-20T15:36:25.906Z,34.03
2023-01-20T15:38:54.238Z,36.33
2023-01-20T15:41:24.374Z,39.90
2023-01-20T15:43:52.854Z,34.67
2023-01-20T15:46:21.099Z,29.15
2023-01-20T15:48:49.203Z,32.85
2023-01-20T15:51:19.589Z,38.40
2023-01-20T15:53:48.721Z,30.85
2023-01-20T15:56:21.297Z,40.20
2023-01-20T15:58:52.020Z,34.15
2023-01-20T16:01:24.222Z,42.10
2023-01-20T16:03:52.902Z,34.65
2023-01-20T16:06:24.295Z,26.10
2023-01-20T16:08:52.978Z,34.95
2023-01-20T16:11:21.610Z,52.92
2023-01-20T16:13:50.887Z,39.83
2023-01-20T16:16:21.085Z,35.67
2023-01-20T16:18:49.456Z,31.50
2023-01-20T16:21:19.602Z,36.30
2023-01-20T16:23:47.720Z,28.08
2023-01-20T16:26:22.678Z,26.38
2023-01-20T16:28:54.147Z,28.27
2023-01-20T16:31:23.357Z,30.42
2023-01-20T16:33:52.060Z,23.08
2023-01-20T16:36:22.406Z,24.35
2023-01-20T16:38:51.967Z,24.63
2023-01-20T16:41:24.024Z,28.40
2023-01-20T16:43:56.550Z,27.30
2023-01-20T16:46:29.031Z,28.10
2023-01-20T16:48:59.463Z,35.97
2023-01-20T16:51:28.168Z,51.35
2023-01-20T16:53:57.223Z,32.30
2023-01-20T16:56:27.822Z,29.27
2023-01-20T16:58:58.856Z,33.85
2023-01-20T17:01:27.646Z,39.70
2023-01-20T17:03:57.624Z,37.35
2023-01-20T17:06:27.390Z,33.15
2023-01-20T17:08:57.469Z,39.58
2023-01-20T17:11:28.123Z,52.08
2023-01-20T17:13:57.888Z,36.17
2023-01-20T17:16:27.130Z,36.20
2023-01-20T17:18:58.736Z,32.08
2023-01-20T17:21:28.845Z,37.33
2023-01-20T17:24:00.787Z,39.10
2023-01-20T17:26:29.527Z,32.67
2023-01-20T17:29:02.305Z,51.35
2023-01-20T17:31:31.944Z,53.38
2023-01-20T17:34:00.562Z,40.88
2023-01-20T17:36:30.106Z,41.83
2023-01-20T17:38:59.131Z,45.85
2023-01-20T17:41:27.503Z,49.65
2023-01-20T17:43:55.736Z,39.00
2023-01-20T17:46:27.720Z,40.47
2023-01-20T17:48:57.596Z,42.00
2023-01-20T17:51:26.994Z,44.93
2023-01-20T17:53:55.030Z,36.63
2023-01-20T17:56:24.205Z,36.63
2023-01-20T17:58:52.134Z,36.67
2023-01-20T18:01:22.704Z,40.90
2023-01-20T18:03:53.890Z,52.73
2023-01-20T18:06:23.291Z,43.20
2023-01-20T18:08:52.878Z,35.45
2023-01-20T18:11:23.031Z,47.07
2023-01-20T18:13:52.784Z,41.80
2023-01-20T18:16:23.731Z,45.85
2023-01-20T18:18:53.657Z,44.40
2023-01-20T18:21:23.394Z,45.23
2023-01-20T18:23:53.129Z,44.17
2023-01-20T18:26:23.833Z,60.53
2023-01-20T18:28:55.160Z,58.72
2023-01-20T18:31:25.520Z,47.97
2023-01-20T18:33:56.981Z,43.53
2023-01-20T18:36:27.080Z,41.67
2023-01-20T18:38:56.873Z,53.93
2023-01-20T18:41:25.758Z,49.15
2023-01-20T18:43:54.278Z,48.90
2023-01-20T18:46:25.348Z,51.60
2023-01-20T18:48:55.539Z,43.80
2023-01-20T18:51:26.301Z,60.63
2023-01-20T18:53:56.750Z,43.83
2023-01-20T18:56:26.041Z,45.30
2023-01-20T18:58:55.466Z,40.23
2023-01-20T19:01:25.359Z,53.72
2023-01-20T19:03:55.327Z,37.97
2023-01-20T19:06:25.643Z,50.67
2023-01-20T19:08:54.196Z,44.73
2023-01-20T19:11:23.768Z,61.97
2023-01-20T19:13:54.082Z,61.00
2023-01-20T19:16:24.132Z,61.05
2023-01-20T19:18:54.986Z,56.25
2023-01-20T19:21:24.528Z,61.50
2023-01-20T19:23:53.993Z,60.80
2023-01-20T19:26:22.851Z,83.63
2023-01-20T19:28:58.287Z,78.60
2023-01-20T19:31:26.297Z,68.63
2023-01-20T19:33:56.061Z,45.80
2023-01-20T19:36:24.859Z,50.08
2023-01-20T19:38:53.004Z,51.72
2023-01-20T19:41:23.126Z,55.27
2023-01-20T19:43:55.787Z,43.55
2023-01-20T19:46:25.356Z,41.87
2023-01-20T19:48:56.447Z,49.30
2023-01-20T19:51:25.239Z,45.50
2023-01-20T19:53:58.575Z,58.90
2023-01-20T19:56:28.753Z,44.83
2023-01-20T19:58:56.885Z,53.15
2023-01-20T20:01:27.445Z,43.87
2023-01-20T20:03:58.216Z,43.27
2023-01-20T20:06:28.384Z,46.53
2023-01-20T20:08:59.418Z,51.58
2023-01-20T20:11:34.039Z,42.47
2023-01-20T20:14:03.616Z,52.17
2023-01-20T20:16:33.963Z,46.60
2023-01-20T20:19:04.153Z,51.37
2023-01-20T20:21:32.335Z,51.10
2023-01-20T20:24:01.634Z,50.27
2023-01-20T20:26:32.103Z,42.77
2023-01-20T20:29:01.348Z,38.03
2023-01-20T20:31:30.009Z,52.60
2023-01-20T20:33:59.278Z,39.45
2023-01-20T20:36:31.132Z,46.40
2023-01-20T20:39:00.507Z,47.77
2023-01-20T20:41:31.771Z,41.40
2023-01-20T20:44:00.896Z,50.80
2023-01-20T20:46:30.607Z,46.27
2023-01-20T20:49:01.470Z,42.37
2023-01-20T20:51:32.728Z,41.40
2023-01-20T20:54:02.863Z,47.63
2023-01-20T20:56:32.874Z,44.27
2023-01-20T20:59:03.738Z,49.23
2023-01-20T21:01:33.942Z,62.87
2023-01-20T21:04:02.901Z,48.83
2023-01-20T21:06:33.130Z,46.97
2023-01-20T21:09:01.568Z,43.03
2023-01-20T21:11:30.362Z,44.97
2023-01-20T21:13:59.102Z,60.13
2023-01-20T21:16:28.067Z,48.47
2023-01-20T21:18:57.393Z,49.17
2023-01-20T21:21:26.005Z,42.13
2023-01-20T21:23:57.154Z,43.30
2023-01-20T21:26:29.634Z,40.10
2023-01-20T21:29:00.229Z,41.47
2023-01-20T21:31:28.514Z,44.43
2023-01-20T21:33:58.384Z,45.50
2023-01-20T21:36:27.732Z,38.20
2023-01-20T21:38:57.434Z,36.43
2023-01-20T21:41:25.357Z,42.73
2023-01-20T21:44:11.041Z,40.33
2023-01-20T21:46:41.761Z,38.40
2023-01-20T21:49:27.800Z,38.90
2023-01-20T21:52:13.903Z,41.57
2023-01-20T21:54:45.777Z,36.63
2023-01-20T21:57:14.680Z,28.10
2023-01-20T21:59:43.227Z,34.13
2023-01-20T22:02:13.649Z,25.77
2023-01-20T22:04:41.865Z,32.33
2023-01-20T22:07:10.402Z,38.67
2023-01-20T22:09:38.704Z,35.70
2023-01-20T22:12:08.399Z,29.97
2023-01-20T22:14:36.335Z,37.77
2023-01-20T22:17:04.469Z,36.47
2023-01-20T22:19:32.936Z,33.77
2023-01-20T22:22:01.256Z,39.03
2023-01-20T22:24:30.018Z,38.27
2023-01-20T22:26:58.307Z,37.00
2023-01-20T22:29:27.708Z,44.03
2023-01-20T22:31:57.762Z,42.73
2023-01-20T22:34:26.279Z,39.63
2023-01-20T22:36:56.204Z,39.40
2023-01-20T22:39:24.644Z,31.33
2023-01-20T22:41:52.881Z,42.37
2023-01-20T22:44:23.045Z,34.70
2023-01-20T22:46:53.214Z,37.27
2023-01-20T22:49:21.162Z,36.77
2023-01-20T22:51:49.136Z,43.30
2023-01-20T22:54:17.535Z,29.97
2023-01-20T22:56:45.440Z,36.57
2023-01-20T22:59:14.248Z,36.20
2023-01-20T23:01:42.614Z,34.93
2023-01-20T23:04:12.160Z,26.53
2023-01-20T23:06:41.016Z,35.33
2023-01-20T23:09:12.292Z,32.87
2023-01-20T23:11:41.196Z,42.37
2023-01-20T23:14:12.962Z,24.77
2023-01-20T23:16:42.370Z,29.53
2023-01-20T23:19:13.691Z,28.43
2023-01-20T23:21:57.988Z,37.53
2023-01-20T23:24:26.330Z,44.30
2023-01-20T23:26:54.723Z,32.10
2023-01-20T23:29:23.491Z,28.13
2023-01-20T23:31:51.929Z,46.37
2023-01-20T23:34:21.847Z,32.43
2023-01-20T23:36:50.726Z,32.67
2023-01-20T23:39:19.194Z,34.00
2023-01-20T23:41:47.654Z,32.87
2023-01-20T23:44:16.635Z,34.40
2023-01-20T23:46:45.091Z,38.47
2023-01-20T23:49:13.424Z,30.60
2023-01-20T23:51:43.770Z,33.80
2023-01-20T23:54:13.496Z,34.90
2023-01-20T23:56:41.974Z,28.73
2023-01-20T23:59:10.439Z,27.33
